Time;durP1;ratioP1;P1;durP2;ratioP2;P2;SDS_P1;SDS_P2;PMS_P1;PMS_P2;Temp;Humidity;BMP_temperature;BMP_pressure;BME280_temperature;BME280_humidity;BME280_pressure;Samples;Min_cycle;Max_cycle;Signal;HPM_P1;HPM_P2
2022/01/12 00:02:25;;;;;;;18.63;12.57;;;;;;;;;;4960830;28;20438;-76
2022/01/12 00:04:53;;;;;;;20.73;12.85;;;;;;;;;;4959308;28;20198;-76
2022/01/12 00:07:20;;;;;;;21.58;13.40;;;;;;;;;;4961737;28;20445;-75
2022/01/12 00:09:48;;;;;;;17.67;13.00;;;;;;;;;;4960291;28;20089;-76
2022/01/12 00:12:15;;;;;;;20.65;13.75;;;;;;;;;;4945042;28;20059;-75
2022/01/12 00:14:43;;;;;;;21.25;14.57;;;;;;;;;;4946843;28;20126;-75
2022/01/12 00:17:10;;;;;;;22.33;14.98;;;;;;;;;;4963690;28;20050;-75
2022/01/12 00:19:37;;;;;;;23.05;14.75;;;;;;;;;;4945216;28;20395;-76
2022/01/12 00:22:05;;;;;;;17.02;11.75;;;;;;;;;;4959999;28;20046;-77
2022/01/12 00:25:02;;;;;;;19.65;11.90;;;;;;;;;;4962661;28;20081;-76
2022/01/12 00:33:11;;;;;;;19.75;12.05;;;;;;;;;;4997089;28;20283;-76
2022/01/12 00:35:40;;;;;;;20.52;14.00;;;;;;;;;;4963232;28;20041;-76
2022/01/12 00:38:08;;;;;;;20.80;14.63;;;;;;;;;;4985927;28;20046;-76
2022/01/12 00:40:39;;;;;;;20.60;14.55;;;;;;;;;;4979209;28;20090;-76
2022/01/12 00:43:07;;;;;;;19.27;12.98;;;;;;;;;;4983114;28;20528;-76
2022/01/12 00:45:37;;;;;;;22.73;13.73;;;;;;;;;;4983791;28;20120;-76
2022/01/12 00:48:05;;;;;;;18.90;13.18;;;;;;;;;;4965585;28;20046;-76
2022/01/12 00:50:33;;;;;;;19.40;12.60;;;;;;;;;;4985442;28;20494;-76
2022/01/12 00:53:00;;;;;;;19.38;13.18;;;;;;;;;;4982032;28;20061;-76
2022/01/12 00:55:27;;;;;;;22.50;14.30;;;;;;;;;;4986941;28;20070;-76
2022/01/12 00:57:57;;;;;;;14.85;8.93;;;;;;;;;;4951308;28;20410;-76
2022/01/12 01:00:25;;;;;;;17.77;11.50;;;;;;;;;;4978649;28;20117;-76
2022/01/12 01:02:54;;;;;;;18.70;12.63;;;;;;;;;;4966157;28;20043;-76
2022/01/12 01:05:22;;;;;;;19.33;14.10;;;;;;;;;;4987696;28;20575;-76
2022/01/12 01:07:50;;;;;;;21.77;14.93;;;;;;;;;;4970743;28;20038;-76
2022/01/12 01:12:57;;;;;;;19.10;12.65;;;;;;;;;;4966716;28;20558;-76
2022/01/12 01:15:52;;;;;;;16.92;11.48;;;;;;;;;;4969446;28;20050;-76
2022/01/12 01:26:36;;;;;;;23.13;14.43;;;;;;;;;;4984761;28;20055;-76
2022/01/12 01:29:04;;;;;;;19.60;13.82;;;;;;;;;;4952219;28;20089;-76
2022/01/12 01:31:33;;;;;;;21.60;13.38;;;;;;;;;;4985902;28;20140;-76
2022/01/12 01:34:12;;;;;;;20.73;14.77;;;;;;;;;;4986538;28;20054;-77
2022/01/12 01:36:45;;;;;;;21.52;12.23;;;;;;;;;;4984073;28;20053;-76
2022/01/12 01:39:14;;;;;;;23.50;15.70;;;;;;;;;;4987104;28;20125;-77
2022/01/12 01:41:47;;;;;;;20.25;11.60;;;;;;;;;;4985281;28;20054;-76
2022/01/12 01:55:09;;;;;;;19.38;13.43;;;;;;;;;;5001040;28;20506;-76
2022/01/12 01:57:37;;;;;;;21.38;14.18;;;;;;;;;;4967192;28;20046;-76
2022/01/12 02:00:07;;;;;;;19.27;13.27;;;;;;;;;;4975134;28;20393;-76
2022/01/12 02:02:52;;;;;;;24.90;15.10;;;;;;;;;;4985950;28;20034;-76
2022/01/12 02:05:25;;;;;;;18.80;11.63;;;;;;;;;;4985737;28;20056;-77
2022/01/12 02:07:52;;;;;;;20.98;13.98;;;;;;;;;;4987651;28;20050;-76
2022/01/12 02:10:23;;;;;;;19.17;13.88;;;;;;;;;;4983430;28;20462;-76
2022/01/12 02:12:51;;;;;;;21.70;13.55;;;;;;;;;;4986000;28;20046;-75
2022/01/12 02:15:21;;;;;;;23.20;14.35;;;;;;;;;;4985346;28;20046;-75
2022/01/12 02:35:11;;;;;;;23.67;13.93;;;;;;;;;;4984692;28;20502;-75
2022/01/12 02:39:44;;;;;;;18.90;12.55;;;;;;;;;;4965361;28;20054;-76
2022/01/12 02:40:05;;;;;;;20.55;13.13;;;;;;;;;;4985405;28;20081;-76
2022/01/12 02:42:34;;;;;;;19.75;13.25;;;;;;;;;;4983720;28;20502;-76
2022/01/12 02:55:49;;;;;;;15.82;9.85;;;;;;;;;;4984621;28;20081;-76
2022/01/12 02:58:17;;;;;;;21.60;13.05;;;;;;;;;;4985251;28;20129;-76
2022/01/12 03:01:08;;;;;;;19.23;12.05;;;;;;;;;;4976489;28;20050;-75
2022/01/12 03:03:37;;;;;;;14.38;9.57;;;;;;;;;;4979417;28;20133;-75
2022/01/12 03:06:07;;;;;;;22.42;13.85;;;;;;;;;;4966845;28;20046;-76
2022/01/12 03:08:38;;;;;;;16.88;12.43;;;;;;;;;;4984190;28;20153;-76
2022/01/12 03:11:10;;;;;;;17.10;11.15;;;;;;;;;;4983595;28;20074;-76
2022/01/12 03:13:38;;;;;;;19.80;12.85;;;;;;;;;;4984625;28;20129;-75
2022/01/12 03:16:13;;;;;;;18.45;12.35;;;;;;;;;;4978484;28;20045;-75
2022/01/12 03:18:43;;;;;;;18.58;12.60;;;;;;;;;;4982656;28;20038;-76
2022/01/12 03:21:11;;;;;;;15.60;10.32;;;;;;;;;;4966581;28;20517;-76
2022/01/12 03:23:39;;;;;;;19.90;13.40;;;;;;;;;;4985767;28;20465;-76
2022/01/12 03:26:08;;;;;;;19.55;13.75;;;;;;;;;;4984586;28;20318;-76
2022/01/12 03:28:38;;;;;;;16.85;11.00;;;;;;;;;;4968136;28;20050;-76
2022/01/12 03:31:16;;;;;;;20.75;13.45;;;;;;;;;;4980822;28;20043;-75
2022/01/12 03:36:28;;;;;;;18.70;10.98;;;;;;;;;;4983386;28;20502;-76
2022/01/12 03:38:58;;;;;;;17.73;11.50;;;;;;;;;;4984410;28;20506;-76
2022/01/12 03:41:27;;;;;;;17.90;10.10;;;;;;;;;;4982037;28;20324;-75
2022/01/12 03:43:55;;;;;;;21.13;12.82;;;;;;;;;;4950193;28;20089;-75
2022/01/12 03:46:25;;;;;;;18.45;13.52;;;;;;;;;;4967766;28;20057;-75
2022/01/12 03:48:52;;;;;;;17.80;11.73;;;;;;;;;;4981986;28;20045;-75
2022/01/12 03:51:20;;;;;;;20.05;13.85;;;;;;;;;;4984773;28;20113;-75
2022/01/12 03:53:47;;;;;;;15.27;8.82;;;;;;;;;;4984710;28;20517;-76
2022/01/12 03:56:15;;;;;;;17.13;12.13;;;;;;;;;;4947496;28;20050;-75
2022/01/12 03:58:43;;;;;;;15.23;9.80;;;;;;;;;;4947317;28;20071;-75
2022/01/12 04:01:10;;;;;;;14.95;9.70;;;;;;;;;;4962958;28;20046;-75
2022/01/12 04:03:43;;;;;;;20.05;12.23;;;;;;;;;;4964112;28;20054;-75
2022/01/12 04:08:56;;;;;;;17.67;11.68;;;;;;;;;;4961570;28;19926;-75
2022/01/12 04:11:23;;;;;;;14.77;10.02;;;;;;;;;;4963330;28;20133;-75
2022/01/12 04:13:52;;;;;;;21.80;11.98;;;;;;;;;;4966188;28;20605;-75
2022/01/12 04:16:19;;;;;;;26.55;12.15;;;;;;;;;;4991987;28;20043;-75
2022/01/12 04:18:47;;;;;;;19.92;13.68;;;;;;;;;;4966141;28;20050;-73
2022/01/12 04:21:17;;;;;;;24.10;13.25;;;;;;;;;;4962308;28;20118;-75
2022/01/12 04:23:44;;;;;;;13.93;8.77;;;;;;;;;;4965280;28;20046;-75
2022/01/12 04:26:13;;;;;;;17.27;12.35;;;;;;;;;;4965413;28;20062;-76
2022/01/12 04:28:44;;;;;;;20.48;11.48;;;;;;;;;;4965507;28;20054;-75
2022/01/12 04:31:12;;;;;;;19.52;12.15;;;;;;;;;;4964730;28;20050;-76
2022/01/12 04:33:40;;;;;;;17.77;12.63;;;;;;;;;;4971716;28;20137;-76
2022/01/12 04:36:08;;;;;;;21.13;14.77;;;;;;;;;;4967253;28;20141;-76
2022/01/12 04:38:37;;;;;;;13.68;9.23;;;;;;;;;;4965769;28;20576;-76
2022/01/12 04:41:06;;;;;;;18.90;13.13;;;;;;;;;;4981048;28;20050;-75
2022/01/12 04:43:33;;;;;;;14.77;9.55;;;;;;;;;;4983823;28;20046;-76
2022/01/12 04:48:37;;;;;;;17.27;12.13;;;;;;;;;;4966625;28;20054;-74
2022/01/12 04:51:05;;;;;;;19.77;13.07;;;;;;;;;;4967066;28;20491;-75
2022/01/12 04:53:34;;;;;;;20.52;13.02;;;;;;;;;;4965996;28;20550;-75
2022/01/12 04:56:02;;;;;;;19.42;13.48;;;;;;;;;;4967021;28;20046;-75
2022/01/12 04:58:30;;;;;;;20.42;13.68;;;;;;;;;;4951917;28;20518;-75
2022/01/12 05:01:05;;;;;;;18.42;12.88;;;;;;;;;;4969215;28;20069;-75
2022/01/12 05:14:11;;;;;;;19.05;12.20;;;;;;;;;;4986777;28;20074;-75
2022/01/12 05:16:39;;;;;;;16.40;11.35;;;;;;;;;;4970328;28;20057;-76
2022/01/12 05:19:06;;;;;;;19.08;12.70;;;;;;;;;;4985122;28;20125;-75
2022/01/12 05:21:34;;;;;;;16.38;11.60;;;;;;;;;;4985921;28;20151;-75
2022/01/12 05:24:06;;;;;;;19.30;13.85;;;;;;;;;;4986502;28;20414;-75
2022/01/12 05:26:34;;;;;;;16.73;12.18;;;;;;;;;;4973193;28;20038;-76
2022/01/12 05:29:06;;;;;;;18.67;12.50;;;;;;;;;;4986324;28;20060;-75
2022/01/12 05:31:34;;;;;;;18.17;11.68;;;;;;;;;;4983019;28;20057;-75
2022/01/12 05:34:02;;;;;;;19.25;12.77;;;;;;;;;;4985406;28;20530;-75
2022/01/12 05:36:32;;;;;;;16.90;11.95;;;;;;;;;;4985079;28;20038;-75
2022/01/12 05:39:01;;;;;;;17.40;12.48;;;;;;;;;;4985959;28;20042;-75
2022/01/12 05:41:29;;;;;;;21.05;12.80;;;;;;;;;;4977351;28;20038;-75
2022/01/12 05:43:57;;;;;;;19.77;12.38;;;;;;;;;;4985101;28;20117;-75
2022/01/12 05:46:27;;;;;;;15.75;10.85;;;;;;;;;;4984884;28;20046;-74
2022/01/12 05:51:47;;;;;;;18.95;13.40;;;;;;;;;;4983681;28;20516;-74
2022/01/12 05:54:15;;;;;;;16.73;11.57;;;;;;;;;;4984510;28;20527;-74
2022/01/12 05:56:44;;;;;;;17.33;13.02;;;;;;;;;;4964418;28;20105;-75
2022/01/12 05:59:12;;;;;;;18.13;12.15;;;;;;;;;;4949797;28;20046;-74
2022/01/12 06:01:39;;;;;;;22.20;12.10;;;;;;;;;;4978256;28;20038;-73
2022/01/12 06:04:07;;;;;;;15.02;11.32;;;;;;;;;;4977898;28;20039;-74
2022/01/12 06:06:35;;;;;;;14.80;10.20;;;;;;;;;;4979538;28;20084;-74
2022/01/12 06:09:02;;;;;;;21.60;13.20;;;;;;;;;;4979011;28;20130;-73
2022/01/12 06:11:29;;;;;;;17.67;11.55;;;;;;;;;;4964533;28;20064;-73
2022/01/12 06:13:59;;;;;;;17.38;12.35;;;;;;;;;;4967402;28;20085;-73
2022/01/12 06:16:30;;;;;;;16.27;11.55;;;;;;;;;;4959177;28;20105;-73
2022/01/12 06:18:58;;;;;;;18.90;12.23;;;;;;;;;;4972472;28;20046;-73
2022/01/12 06:21:27;;;;;;;15.68;10.20;;;;;;;;;;4956811;28;20071;-73
2022/01/12 06:24:02;;;;;;;15.05;9.80;;;;;;;;;;4960035;28;20118;-74
2022/01/12 06:26:29;;;;;;;12.45;9.35;;;;;;;;;;4947412;28;20407;-73
2022/01/12 06:31:34;;;;;;;13.30;10.13;;;;;;;;;;4948088;28;20053;-74
2022/01/12 06:34:01;;;;;;;15.27;10.25;;;;;;;;;;4981092;28;20410;-74
2022/01/12 06:36:29;;;;;;;13.68;9.52;;;;;;;;;;4959177;28;20121;-74
2022/01/12 06:38:56;;;;;;;18.38;11.60;;;;;;;;;;4982391;28;20046;-73
2022/01/12 06:41:25;;;;;;;17.42;12.20;;;;;;;;;;4962378;28;20437;-74
2022/01/12 06:43:55;;;;;;;21.13;12.77;;;;;;;;;;4965675;28;20560;-73
2022/01/12 06:46:26;;;;;;;19.27;11.98;;;;;;;;;;4951191;28;20084;-74
2022/01/12 06:48:54;;;;;;;17.33;12.40;;;;;;;;;;4965821;28;20533;-73
2022/01/12 06:51:22;;;;;;;19.80;12.38;;;;;;;;;;4964328;28;20082;-73
2022/01/12 06:53:53;;;;;;;23.80;14.40;;;;;;;;;;4973705;28;20043;-74
2022/01/12 06:56:24;;;;;;;18.08;12.27;;;;;;;;;;4975303;28;20035;-74
2022/01/12 06:58:54;;;;;;;23.27;14.45;;;;;;;;;;4979289;28;20039;-74
2022/01/12 07:01:22;;;;;;;14.45;9.25;;;;;;;;;;4963737;28;20050;-74
2022/01/12 07:03:51;;;;;;;17.95;11.25;;;;;;;;;;4979065;28;20330;-74
2022/01/12 07:06:18;;;;;;;17.58;11.32;;;;;;;;;;4996931;28;20482;-75
2022/01/12 07:08:46;;;;;;;18.05;10.75;;;;;;;;;;4983925;28;20050;-74
2022/01/12 07:11:23;;;;;;;16.30;12.13;;;;;;;;;;4978671;28;20046;-74
2022/01/12 07:13:56;;;;;;;14.95;11.10;;;;;;;;;;4975593;28;20046;-74
2022/01/12 07:16:24;;;;;;;17.25;10.30;;;;;;;;;;4980204;28;20506;-74
2022/01/12 07:18:51;;;;;;;12.63;9.48;;;;;;;;;;4980796;28;20062;-73
2022/01/12 07:21:19;;;;;;;18.25;12.15;;;;;;;;;;4978815;28;20050;-73
2022/01/12 07:23:46;;;;;;;14.85;10.95;;;;;;;;;;4978871;28;20046;-73
2022/01/12 07:26:13;;;;;;;18.95;12.73;;;;;;;;;;4981111;28;20156;-74
2022/01/12 07:28:41;;;;;;;19.33;11.25;;;;;;;;;;4965193;28;20518;-75
2022/01/12 07:31:08;;;;;;;22.90;16.42;;;;;;;;;;4973593;28;20530;-74
2022/01/12 07:33:35;;;;;;;23.05;14.13;;;;;;;;;;4984316;28;20462;-75
2022/01/12 07:36:03;;;;;;;38.22;20.20;;;;;;;;;;4984397;28;20486;-75
2022/01/12 07:38:30;;;;;;;46.70;28.55;;;;;;;;;;4986024;28;20145;-75
2022/01/12 07:40:58;;;;;;;32.03;18.15;;;;;;;;;;4983326;28;20069;-75
2022/01/12 07:43:25;;;;;;;32.28;16.45;;;;;;;;;;4983809;28;20409;-75
2022/01/12 07:45:53;;;;;;;23.48;14.05;;;;;;;;;;4984344;28;20716;-75
2022/01/12 07:48:25;;;;;;;23.55;12.65;;;;;;;;;;4981031;28;20046;-75
2022/01/12 07:50:52;;;;;;;20.90;13.52;;;;;;;;;;4965370;28;20122;-75
2022/01/12 07:53:20;;;;;;;18.40;11.63;;;;;;;;;;4972533;28;20510;-74
2022/01/12 07:55:47;;;;;;;26.55;12.82;;;;;;;;;;4973974;28;20070;-75
2022/01/12 07:58:15;;;;;;;23.50;14.05;;;;;;;;;;4987336;28;20430;-76
2022/01/12 08:00:42;;;;;;;26.73;12.88;;;;;;;;;;4973940;28;20038;-75
2022/01/12 08:03:12;;;;;;;27.33;15.93;;;;;;;;;;4970183;28;20050;-75
2022/01/12 08:05:39;;;;;;;24.08;14.60;;;;;;;;;;4973006;28;20049;-76
2022/01/12 08:08:07;;;;;;;26.42;16.05;;;;;;;;;;4983590;28;20061;-74
2022/01/12 08:10:34;;;;;;;18.85;12.63;;;;;;;;;;4979298;28;20069;-75
2022/01/12 08:13:05;;;;;;;21.73;12.38;;;;;;;;;;4978615;28;20552;-74
2022/01/12 08:15:32;;;;;;;22.45;14.32;;;;;;;;;;4981464;28;20056;-75
2022/01/12 08:18:00;;;;;;;23.50;13.00;;;;;;;;;;4973249;28;20030;-74
2022/01/12 08:20:28;;;;;;;18.55;11.32;;;;;;;;;;4959055;28;20058;-75
2022/01/12 08:22:56;;;;;;;23.88;14.85;;;;;;;;;;4987855;28;20438;-74
2022/01/12 08:25:24;;;;;;;21.90;12.55;;;;;;;;;;4987672;28;20093;-75
2022/01/12 08:27:51;;;;;;;20.05;12.27;;;;;;;;;;4985031;28;20120;-74
2022/01/12 08:30:21;;;;;;;39.05;17.75;;;;;;;;;;4984507;28;20078;-74
2022/01/12 08:32:51;;;;;;;21.65;13.40;;;;;;;;;;5001179;28;20052;-73
2022/01/12 08:35:19;;;;;;;19.20;13.40;;;;;;;;;;4973090;28;20065;-75
2022/01/12 08:37:48;;;;;;;16.65;12.27;;;;;;;;;;4993107;28;20124;-74
2022/01/12 08:40:16;;;;;;;17.65;11.15;;;;;;;;;;4992618;28;20070;-74
2022/01/12 08:42:43;;;;;;;18.60;12.93;;;;;;;;;;4991900;28;20149;-74
2022/01/12 08:45:11;;;;;;;16.38;10.48;;;;;;;;;;4993283;28;20570;-74
2022/01/12 08:47:38;;;;;;;17.52;11.57;;;;;;;;;;4988436;28;20044;-74
2022/01/12 08:50:07;;;;;;;22.23;11.90;;;;;;;;;;4991026;28;20125;-73
2022/01/12 08:52:34;;;;;;;17.95;12.40;;;;;;;;;;4989005;28;20132;-74
2022/01/12 08:55:02;;;;;;;18.35;12.82;;;;;;;;;;4992987;28;20499;-74
2022/01/12 08:57:30;;;;;;;20.05;12.68;;;;;;;;;;4991786;28;20047;-74
2022/01/12 09:00:00;;;;;;;19.90;12.40;;;;;;;;;;4992773;28;20406;-74
2022/01/12 09:02:28;;;;;;;16.23;12.10;;;;;;;;;;4990487;28;20041;-74
2022/01/12 09:04:56;;;;;;;18.92;13.65;;;;;;;;;;4992349;28;20042;-74
2022/01/12 09:07:23;;;;;;;14.75;9.57;;;;;;;;;;4991558;28;20094;-74
2022/01/12 09:09:51;;;;;;;16.52;12.05;;;;;;;;;;4992485;28;20039;-74
2022/01/12 09:12:18;;;;;;;21.33;13.55;;;;;;;;;;4992881;28;20460;-74
2022/01/12 09:14:45;;;;;;;15.65;12.05;;;;;;;;;;4992160;28;20145;-74
2022/01/12 09:17:18;;;;;;;18.83;11.68;;;;;;;;;;4991776;28;20088;-74
2022/01/12 09:19:47;;;;;;;28.83;11.60;;;;;;;;;;4990808;28;20530;-75
2022/01/12 09:22:14;;;;;;;19.85;11.93;;;;;;;;;;4991743;28;20089;-74
2022/01/12 09:24:42;;;;;;;16.52;11.68;;;;;;;;;;4993650;28;20066;-74
2022/01/12 09:27:09;;;;;;;18.98;12.38;;;;;;;;;;4992829;28;20050;-74
2022/01/12 09:29:37;;;;;;;14.25;10.60;;;;;;;;;;4991155;28;20043;-75
2022/01/12 09:32:04;;;;;;;17.42;10.82;;;;;;;;;;4991852;28;20081;-74
2022/01/12 09:34:32;;;;;;;20.98;10.70;;;;;;;;;;4991320;28;20046;-73
2022/01/12 09:36:59;;;;;;;14.25;10.55;;;;;;;;;;4990653;28;20089;-73
2022/01/12 09:39:27;;;;;;;16.40;10.65;;;;;;;;;;4992027;28;20125;-74
2022/01/12 09:41:54;;;;;;;19.40;12.13;;;;;;;;;;4970267;28;20058;-74
2022/01/12 09:44:28;;;;;;;15.98;11.95;;;;;;;;;;4969907;28;20054;-74
2022/01/12 09:46:55;;;;;;;22.30;11.90;;;;;;;;;;4949646;28;20634;-73
2022/01/12 09:49:23;;;;;;;17.35;11.88;;;;;;;;;;4950772;29;20083;-74
2022/01/12 09:51:51;;;;;;;17.33;12.10;;;;;;;;;;4950448;29;20067;-74
2022/01/12 09:54:19;;;;;;;22.67;12.70;;;;;;;;;;4933412;28;20482;-74
2022/01/12 09:56:47;;;;;;;15.95;12.02;;;;;;;;;;4950547;29;20040;-74
2022/01/12 09:59:15;;;;;;;16.80;11.82;;;;;;;;;;4933366;29;20067;-74
2022/01/12 10:01:43;;;;;;;15.88;10.13;;;;;;;;;;4934558;29;20047;-74
2022/01/12 10:04:12;;;;;;;16.10;11.30;;;;;;;;;;4919880;29;20047;-73
2022/01/12 10:06:40;;;;;;;16.23;12.50;;;;;;;;;;4934548;29;20547;-75
2022/01/12 10:09:08;;;;;;;22.92;12.35;;;;;;;;;;4950788;29;20130;-73
2022/01/12 10:11:39;;;;;;;19.00;12.18;;;;;;;;;;4947457;28;20048;-74
2022/01/12 10:14:07;;;;;;;21.23;12.50;;;;;;;;;;4928338;29;20153;-74
2022/01/12 10:16:35;;;;;;;17.20;12.05;;;;;;;;;;4930957;28;20046;-75
2022/01/12 10:19:02;;;;;;;15.60;12.00;;;;;;;;;;4990452;28;20050;-74
2022/01/12 10:21:32;;;;;;;19.42;12.50;;;;;;;;;;4992065;28;20038;-73
2022/01/12 10:24:06;;;;;;;17.15;11.98;;;;;;;;;;4990791;28;20560;-73
2022/01/12 10:26:34;;;;;;;15.98;11.35;;;;;;;;;;4991832;28;20133;-73
2022/01/12 10:29:04;;;;;;;22.50;12.70;;;;;;;;;;4989252;28;20047;-74
2022/01/12 10:31:42;;;;;;;20.92;12.55;;;;;;;;;;4984312;28;20527;-74
2022/01/12 10:34:09;;;;;;;25.13;16.42;;;;;;;;;;4992039;28;20042;-73
2022/01/12 10:36:38;;;;;;;24.73;16.15;;;;;;;;;;4990082;28;20590;-74
2022/01/12 10:39:09;;;;;;;17.13;12.15;;;;;;;;;;4990534;28;20414;-73
2022/01/12 10:41:37;;;;;;;21.20;11.83;;;;;;;;;;4989824;28;20517;-74
2022/01/12 10:44:04;;;;;;;17.88;12.00;;;;;;;;;;4989463;28;20058;-74
2022/01/12 10:46:32;;;;;;;15.35;12.35;;;;;;;;;;4990836;28;20039;-74
2022/01/12 10:49:00;;;;;;;16.83;10.88;;;;;;;;;;4991069;28;20038;-74
2022/01/12 10:51:29;;;;;;;15.65;11.00;;;;;;;;;;4990493;28;20066;-74
2022/01/12 10:54:04;;;;;;;20.20;12.50;;;;;;;;;;4989918;28;20502;-74
2022/01/12 10:56:32;;;;;;;15.68;12.15;;;;;;;;;;4973574;28;20046;-73
2022/01/12 10:58:59;;;;;;;13.65;10.25;;;;;;;;;;4989294;28;20065;-74
2022/01/12 11:01:28;;;;;;;16.27;12.50;;;;;;;;;;4988154;28;20045;-74
2022/01/12 11:03:56;;;;;;;17.95;12.90;;;;;;;;;;4990404;28;20042;-74
2022/01/12 11:06:25;;;;;;;18.52;12.25;;;;;;;;;;4990363;28;20590;-73
2022/01/12 11:08:53;;;;;;;22.63;12.23;;;;;;;;;;4989471;28;20430;-75
2022/01/12 11:11:21;;;;;;;21.55;11.63;;;;;;;;;;4977676;28;20375;-74
2022/01/12 11:13:50;;;;;;;19.30;13.02;;;;;;;;;;4987290;28;20691;-74
2022/01/12 11:16:24;;;;;;;16.85;12.02;;;;;;;;;;4985143;28;20514;-74
2022/01/12 11:18:54;;;;;;;17.70;12.98;;;;;;;;;;4984820;28;20030;-74
2022/01/12 11:21:24;;;;;;;17.13;12.95;;;;;;;;;;4988517;28;20137;-74
2022/01/12 11:23:52;;;;;;;19.25;13.25;;;;;;;;;;4988342;28;20069;-74
2022/01/12 11:26:23;;;;;;;28.00;19.38;;;;;;;;;;4988980;28;20070;-74
2022/01/12 11:28:51;;;;;;;19.10;12.52;;;;;;;;;;4990487;28;20290;-74
2022/01/12 11:31:26;;;;;;;17.33;12.95;;;;;;;;;;4988464;28;20046;-74
2022/01/12 11:33:54;;;;;;;18.55;12.88;;;;;;;;;;4988656;28;20462;-74
2022/01/12 11:36:24;;;;;;;20.30;11.70;;;;;;;;;;4988211;28;20132;-74
2022/01/12 11:38:59;;;;;;;20.48;12.98;;;;;;;;;;4990155;28;20049;-74
2022/01/12 11:41:28;;;;;;;17.27;13.02;;;;;;;;;;4987367;28;20073;-74
2022/01/12 11:43:58;;;;;;;17.33;13.07;;;;;;;;;;4989928;28;20096;-73
2022/01/12 11:46:27;;;;;;;19.50;12.93;;;;;;;;;;4989865;28;20054;-74
2022/01/12 11:48:56;;;;;;;19.35;13.65;;;;;;;;;;4989888;28;20046;-74
2022/01/12 11:51:40;;;;;;;23.67;13.98;;;;;;;;;;4986138;28;20077;-73
2022/01/12 11:54:21;;;;;;;25.98;13.35;;;;;;;;;;4988532;28;20476;-74
2022/01/12 11:56:59;;;;;;;15.35;11.48;;;;;;;;;;4989422;28;20039;-73
2022/01/12 11:59:30;;;;;;;18.23;12.40;;;;;;;;;;4988410;28;20129;-74
2022/01/12 12:02:16;;;;;;;17.45;12.48;;;;;;;;;;4986826;28;20042;-73
2022/01/12 12:04:54;;;;;;;28.30;13.80;;;;;;;;;;4987545;28;20046;-73
2022/01/12 12:07:25;;;;;;;16.48;12.35;;;;;;;;;;4988927;28;20042;-73
2022/01/12 12:09:56;;;;;;;21.30;12.52;;;;;;;;;;4985508;28;20046;-73
2022/01/12 12:12:31;;;;;;;24.90;13.32;;;;;;;;;;4987332;28;20136;-73
2022/01/12 12:15:03;;;;;;;20.17;11.95;;;;;;;;;;4986995;28;20498;-73
2022/01/12 12:17:31;;;;;;;22.33;12.35;;;;;;;;;;4988077;28;20039;-73
2022/01/12 12:19:59;;;;;;;16.30;11.88;;;;;;;;;;4986159;28;20053;-73
2022/01/12 12:22:34;;;;;;;24.90;14.07;;;;;;;;;;4985424;28;20054;-72
2022/01/12 12:25:06;;;;;;;14.05;9.77;;;;;;;;;;4986811;28;20046;-73
2022/01/12 12:27:35;;;;;;;18.27;12.43;;;;;;;;;;4985035;28;20097;-76
2022/01/12 12:30:07;;;;;;;25.00;13.27;;;;;;;;;;4988174;28;20149;-77
2022/01/12 12:32:35;;;;;;;;;;;;;;;;;;4988089;28;20054;-75
2022/01/12 12:35:10;;;;;;;18.58;11.82;;;;;;;;;;4989438;28;19921;-74
2022/01/12 12:37:39;;;;;;;20.13;12.60;;;;;;;;;;4982603;28;20041;-75
2022/01/12 12:40:25;;;;;;;26.73;13.43;;;;;;;;;;4987037;28;20046;-73
2022/01/12 12:43:02;;;;;;;21.30;12.80;;;;;;;;;;4983541;28;20463;-74
2022/01/12 12:45:59;;;;;;;15.95;13.02;;;;;;;;;;4988558;28;20104;-74
2022/01/12 12:48:28;;;;;;;20.73;14.93;;;;;;;;;;4983983;28;20104;-74
2022/01/12 12:50:58;;;;;;;64.05;37.38;;;;;;;;;;4983390;28;20050;-74
2022/01/12 12:53:30;;;;;;;42.65;26.10;;;;;;;;;;4981873;28;20050;-74
2022/01/12 12:55:58;;;;;;;26.70;16.75;;;;;;;;;;4982111;28;20042;-74
2022/01/12 12:58:32;;;;;;;20.85;14.30;;;;;;;;;;4980379;28;20154;-74
2022/01/12 13:01:07;;;;;;;22.42;12.68;;;;;;;;;;4980940;28;20101;-74
2022/01/12 13:03:35;;;;;;;18.35;12.57;;;;;;;;;;4987309;28;20271;-74
2022/01/12 13:06:03;;;;;;;20.27;13.55;;;;;;;;;;4987331;28;20130;-74
2022/01/12 13:08:30;;;;;;;19.98;12.20;;;;;;;;;;4984064;28;20100;-74
2022/01/12 13:11:06;;;;;;;21.15;14.07;;;;;;;;;;4983581;28;20177;-74
2022/01/12 13:13:33;;;;;;;17.65;12.73;;;;;;;;;;4987600;28;20042;-74
2022/01/12 13:16:02;;;;;;;25.13;13.65;;;;;;;;;;4985092;28;20178;-74
2022/01/12 13:18:29;;;;;;;22.65;12.80;;;;;;;;;;4987704;28;20058;-75
2022/01/12 13:21:09;;;;;;;21.35;13.50;;;;;;;;;;4988869;28;20520;-75
2022/01/12 13:23:37;;;;;;;18.83;13.85;;;;;;;;;;4970375;28;20146;-74
2022/01/12 13:26:05;;;;;;;19.98;14.85;;;;;;;;;;4989803;28;20035;-74
2022/01/12 13:28:33;;;;;;;20.83;11.95;;;;;;;;;;4991756;28;20042;-74
2022/01/12 13:31:02;;;;;;;18.65;12.82;;;;;;;;;;4988551;28;20065;-73
2022/01/12 13:33:31;;;;;;;23.60;13.98;;;;;;;;;;4981449;28;20354;-75
2022/01/12 13:36:01;;;;;;;21.63;14.63;;;;;;;;;;4989609;28;20088;-74
2022/01/12 13:38:32;;;;;;;20.02;13.15;;;;;;;;;;4992899;28;20046;-73
2022/01/12 13:41:07;;;;;;;17.80;13.38;;;;;;;;;;4992220;28;20119;-74
2022/01/12 13:43:34;;;;;;;22.42;14.15;;;;;;;;;;4991075;28;20051;-74
2022/01/12 13:46:12;;;;;;;21.85;14.77;;;;;;;;;;4991294;28;20574;-74
2022/01/12 13:49:21;;;;;;;24.23;14.27;;;;;;;;;;4989781;28;20038;-74
2022/01/12 13:51:56;;;;;;;19.90;12.02;;;;;;;;;;4958353;28;20046;-74
2022/01/12 13:54:27;;;;;;;17.52;13.75;;;;;;;;;;4956644;28;20487;-73
2022/01/12 13:56:55;;;;;;;22.77;14.50;;;;;;;;;;4988289;28;20189;-74
2022/01/12 13:59:25;;;;;;;21.75;13.27;;;;;;;;;;4991325;28;20478;-74
2022/01/12 14:01:52;;;;;;;33.20;17.45;;;;;;;;;;4992775;28;20696;-75
2022/01/12 14:04:58;;;;;;;22.58;14.88;;;;;;;;;;4990732;28;20074;-72
2022/01/12 14:07:26;;;;;;;20.15;14.30;;;;;;;;;;4991143;28;20101;-73
2022/01/12 14:09:55;;;;;;;18.80;13.68;;;;;;;;;;4990085;28;20518;-75
2022/01/12 14:12:24;;;;;;;24.42;15.05;;;;;;;;;;4990285;28;20525;-76
2022/01/12 14:14:53;;;;;;;25.92;14.50;;;;;;;;;;4973443;28;20042;-74
2022/01/12 14:17:32;;;;;;;20.10;13.55;;;;;;;;;;4986077;28;20085;-74
2022/01/12 14:19:59;;;;;;;21.27;12.85;;;;;;;;;;4989068;28;20299;-74
2022/01/12 14:22:42;;;;;;;20.13;13.85;;;;;;;;;;4990983;28;20150;-74
2022/01/12 14:25:10;;;;;;;19.85;14.30;;;;;;;;;;4990243;28;20053;-74
2022/01/12 14:27:41;;;;;;;22.30;14.98;;;;;;;;;;4990648;28;20142;-74
2022/01/12 14:30:11;;;;;;;19.42;14.32;;;;;;;;;;4991339;28;20088;-74
2022/01/12 14:32:38;;;;;;;21.80;14.65;;;;;;;;;;4983676;28;20514;-74
2022/01/12 14:35:14;;;;;;;21.42;14.57;;;;;;;;;;4987646;28;20388;-74
2022/01/12 14:37:41;;;;;;;22.85;14.55;;;;;;;;;;4989856;28;20120;-75
2022/01/12 14:40:11;;;;;;;22.48;14.45;;;;;;;;;;4989804;28;20225;-74
2022/01/12 14:42:43;;;;;;;20.23;14.32;;;;;;;;;;4977058;28;20053;-73
2022/01/12 14:45:13;;;;;;;21.50;13.80;;;;;;;;;;4970656;28;20042;-73
2022/01/12 14:47:42;;;;;;;15.60;12.68;;;;;;;;;;4978150;28;20039;-73
2022/01/12 14:50:12;;;;;;;23.00;15.52;;;;;;;;;;4976500;28;20049;-73
2022/01/12 14:52:40;;;;;;;18.98;14.23;;;;;;;;;;4980140;28;20049;-73
2022/01/12 14:55:08;;;;;;;18.33;13.27;;;;;;;;;;4978142;28;20112;-73
2022/01/12 14:57:35;;;;;;;23.92;16.23;;;;;;;;;;4986998;28;20073;-73
2022/01/12 15:00:05;;;;;;;17.63;11.52;;;;;;;;;;4970519;28;20414;-72
2022/01/12 15:02:33;;;;;;;18.65;14.25;;;;;;;;;;4987889;28;20039;-75
2022/01/12 15:05:00;;;;;;;22.90;14.20;;;;;;;;;;4989446;28;20122;-73
2022/01/12 15:07:28;;;;;;;18.75;13.25;;;;;;;;;;4966979;28;20063;-72
2022/01/12 15:09:58;;;;;;;22.60;15.05;;;;;;;;;;4966661;28;20058;-72
2022/01/12 15:12:31;;;;;;;21.98;14.95;;;;;;;;;;4950652;28;20428;-72
2022/01/12 15:15:02;;;;;;;25.52;16.13;;;;;;;;;;4951254;28;20061;-73
2022/01/12 15:17:33;;;;;;;18.85;13.50;;;;;;;;;;4965667;28;20047;-72
2022/01/12 15:20:02;;;;;;;21.50;14.88;;;;;;;;;;4967575;28;20126;-72
2022/01/12 15:22:30;;;;;;;21.92;14.40;;;;;;;;;;4966492;28;20125;-72
2022/01/12 15:24:57;;;;;;;23.55;13.50;;;;;;;;;;4961502;28;20042;-72
2022/01/12 15:27:24;;;;;;;18.25;13.48;;;;;;;;;;4968334;28;20051;-73
2022/01/12 15:29:52;;;;;;;21.35;14.27;;;;;;;;;;4966206;28;20046;-73
2022/01/12 15:32:20;;;;;;;20.35;14.65;;;;;;;;;;4934719;28;20055;-73
2022/01/12 15:34:47;;;;;;;18.75;13.88;;;;;;;;;;4948881;29;20094;-72
2022/01/12 15:37:15;;;;;;;18.05;12.80;;;;;;;;;;4961547;28;20104;-73
2022/01/12 15:39:42;;;;;;;21.77;14.60;;;;;;;;;;4985440;28;20042;-73
2022/01/12 15:42:10;;;;;;;19.50;15.18;;;;;;;;;;4985343;28;20057;-73
2022/01/12 15:44:37;;;;;;;18.67;14.00;;;;;;;;;;4977509;28;20069;-73
2022/01/12 15:47:06;;;;;;;21.98;12.93;;;;;;;;;;4977992;28;20069;-73
2022/01/12 15:49:33;;;;;;;22.08;14.48;;;;;;;;;;4960704;28;20108;-73
2022/01/12 15:52:02;;;;;;;22.10;13.80;;;;;;;;;;4975778;28;20105;-73
2022/01/12 15:54:29;;;;;;;16.58;13.15;;;;;;;;;;4975379;28;20039;-74